sensor_id;sensor_type;location;lat;lon;timestamp;P1;durP1;ratioP1;P2;durP2;ratioP2
42000;SDS011;27689;48.390;10.856;2022-08-07T00:01:30;14.27;;;12.90;;
42000;SDS011;27689;48.390;10.856;2022-08-07T00:04:14;13.88;;;12.48;;
42000;SDS011;27689;48.390;10.856;2022-08-07T00:06:59;13.73;;;12.43;;
42000;SDS011;27689;48.390;10.856;2022-08-07T00:09:43;13.25;;;12.05;;
42000;SDS011;27689;48.390;10.856;2022-08-07T00:12:26;12.93;;;11.63;;
42000;SDS011;27689;48.390;10.856;2022-08-07T00:15:11;12.80;;;11.63;;
42000;SDS011;27689;48.390;10.856;2022-08-07T00:17:55;14.07;;;12.57;;
42000;SDS011;27689;48.390;10.856;2022-08-07T00:20:39;12.95;;;11.75;;
42000;SDS011;27689;48.390;10.856;2022-08-07T00:23:23;12.55;;;11.40;;
42000;SDS011;27689;48.390;10.856;2022-08-07T00:26:08;12.77;;;11.38;;
42000;SDS011;27689;48.390;10.856;2022-08-07T00:28:53;13.38;;;12.18;;
42000;SDS011;27689;48.390;10.856;2022-08-07T00:31:37;13.48;;;12.18;;
42000;SDS011;27689;48.390;10.856;2022-08-07T00:34:21;15.00;;;13.57;;
42000;SDS011;27689;48.390;10.856;2022-08-07T00:37:05;13.23;;;12.02;;
42000;SDS011;27689;48.390;10.856;2022-08-07T00:39:49;13.93;;;12.63;;
42000;SDS011;27689;48.390;10.856;2022-08-07T00:42:33;13.02;;;11.82;;
42000;SDS011;27689;48.390;10.856;2022-08-07T00:45:17;12.85;;;11.70;;
42000;SDS011;27689;48.390;10.856;2022-08-07T00:48:04;13.90;;;12.50;;
42000;SDS011;27689;48.390;10.856;2022-08-07T00:50:48;13.80;;;12.55;;
42000;SDS011;27689;48.390;10.856;2022-08-07T00:53:32;13.30;;;12.00;;
42000;SDS011;27689;48.390;10.856;2022-08-07T00:56:16;13.57;;;12.23;;
42000;SDS011;27689;48.390;10.856;2022-08-07T00:59:01;13.57;;;12.27;;
42000;SDS011;27689;48.390;10.856;2022-08-07T01:01:46;13.90;;;12.65;;
42000;SDS011;27689;48.390;10.856;2022-08-07T01:04:31;15.43;;;13.93;;
42000;SDS011;27689;48.390;10.856;2022-08-07T01:07:15;14.95;;;13.57;;
42000;SDS011;27689;48.390;10.856;2022-08-07T01:09:59;16.75;;;15.15;;
42000;SDS011;27689;48.390;10.856;2022-08-07T01:12:43;14.50;;;13.00;;
42000;SDS011;27689;48.390;10.856;2022-08-07T01:15:27;14.68;;;13.27;;
42000;SDS011;27689;48.390;10.856;2022-08-07T01:18:14;17.38;;;15.68;;
42000;SDS011;27689;48.390;10.856;2022-08-07T01:21:12;16.90;;;15.05;;
42000;SDS011;27689;48.390;10.856;2022-08-07T01:23:57;15.98;;;14.38;;
42000;SDS011;27689;48.390;10.856;2022-08-07T01:26:42;16.48;;;14.93;;
42000;SDS011;27689;48.390;10.856;2022-08-07T01:29:27;15.40;;;13.93;;
42000;SDS011;27689;48.390;10.856;2022-08-07T01:32:12;15.07;;;13.70;;
42000;SDS011;27689;48.390;10.856;2022-08-07T01:34:56;14.52;;;13.10;;
42000;SDS011;27689;48.390;10.856;2022-08-07T01:37:40;15.55;;;14.05;;
42000;SDS011;27689;48.390;10.856;2022-08-07T01:40:24;16.50;;;14.17;;
42000;SDS011;27689;48.390;10.856;2022-08-07T01:43:09;15.60;;;14.07;;
42000;SDS011;27689;48.390;10.856;2022-08-07T01:45:54;14.85;;;13.45;;
42000;SDS011;27689;48.390;10.856;2022-08-07T01:48:39;15.25;;;13.65;;
42000;SDS011;27689;48.390;10.856;2022-08-07T01:51:24;15.52;;;14.00;;
42000;SDS011;27689;48.390;10.856;2022-08-07T01:54:09;16.13;;;14.63;;
42000;SDS011;27689;48.390;10.856;2022-08-07T01:57:01;15.55;;;13.95;;
42000;SDS011;27689;48.390;10.856;2022-08-07T02:00:07;16.00;;;14.38;;
42000;SDS011;27689;48.390;10.856;2022-08-07T02:02:55;14.10;;;12.77;;
42000;SDS011;27689;48.390;10.856;2022-08-07T02:05:53;13.50;;;12.18;;
42000;SDS011;27689;48.390;10.856;2022-08-07T02:08:40;13.73;;;12.43;;
42000;SDS011;27689;48.390;10.856;2022-08-07T02:11:26;14.40;;;13.07;;
42000;SDS011;27689;48.390;10.856;2022-08-07T02:14:10;13.20;;;12.00;;
42000;SDS011;27689;48.390;10.856;2022-08-07T02:16:56;13.32;;;11.98;;
42000;SDS011;27689;48.390;10.856;2022-08-07T02:19:41;13.02;;;11.80;;
42000;SDS011;27689;48.390;10.856;2022-08-07T02:22:28;12.98;;;11.77;;
42000;SDS011;27689;48.390;10.856;2022-08-07T02:25:14;12.13;;;10.93;;
42000;SDS011;27689;48.390;10.856;2022-08-07T02:28:00;11.52;;;10.52;;
42000;SDS011;27689;48.390;10.856;2022-08-07T02:30:45;12.38;;;11.20;;
42000;SDS011;27689;48.390;10.856;2022-08-07T02:33:30;12.02;;;10.82;;
42000;SDS011;27689;48.390;10.856;2022-08-07T02:36:17;11.38;;;10.27;;
42000;SDS011;27689;48.390;10.856;2022-08-07T02:39:02;13.10;;;11.48;;
42000;SDS011;27689;48.390;10.856;2022-08-07T02:41:47;12.13;;;10.90;;
42000;SDS011;27689;48.390;10.856;2022-08-07T02:44:32;12.23;;;11.02;;
42000;SDS011;27689;48.390;10.856;2022-08-07T02:47:18;11.27;;;10.27;;
42000;SDS011;27689;48.390;10.856;2022-08-07T02:50:03;13.15;;;11.85;;
42000;SDS011;27689;48.390;10.856;2022-08-07T02:52:52;11.35;;;10.15;;
42000;SDS011;27689;48.390;10.856;2022-08-07T02:55:43;11.63;;;10.50;;
42000;SDS011;27689;48.390;10.856;2022-08-07T02:58:30;12.73;;;11.43;;
42000;SDS011;27689;48.390;10.856;2022-08-07T03:01:16;11.35;;;10.30;;
42000;SDS011;27689;48.390;10.856;2022-08-07T03:04:03;14.88;;;12.05;;
42000;SDS011;27689;48.390;10.856;2022-08-07T03:06:49;13.10;;;11.80;;
42000;SDS011;27689;48.390;10.856;2022-08-07T03:09:35;12.23;;;10.65;;
42000;SDS011;27689;48.390;10.856;2022-08-07T03:12:20;13.65;;;12.35;;
42000;SDS011;27689;48.390;10.856;2022-08-07T03:15:05;12.25;;;11.10;;
42000;SDS011;27689;48.390;10.856;2022-08-07T03:17:50;12.65;;;11.40;;
42000;SDS011;27689;48.390;10.856;2022-08-07T03:20:35;11.90;;;10.77;;
42000;SDS011;27689;48.390;10.856;2022-08-07T03:23:19;12.70;;;11.50;;
42000;SDS011;27689;48.390;10.856;2022-08-07T03:28:48;12.98;;;11.55;;
42000;SDS011;27689;48.390;10.856;2022-08-07T03:31:32;12.98;;;11.68;;
42000;SDS011;27689;48.390;10.856;2022-08-07T03:34:19;13.43;;;11.88;;
42000;SDS011;27689;48.390;10.856;2022-08-07T03:37:03;13.82;;;12.43;;
42000;SDS011;27689;48.390;10.856;2022-08-07T03:39:50;13.52;;;12.23;;
42000;SDS011;27689;48.390;10.856;2022-08-07T03:42:35;13.07;;;11.68;;
42000;SDS011;27689;48.390;10.856;2022-08-07T03:45:20;12.98;;;11.70;;
42000;SDS011;27689;48.390;10.856;2022-08-07T03:48:05;14.80;;;13.30;;
42000;SDS011;27689;48.390;10.856;2022-08-07T03:50:50;13.25;;;11.98;;
42000;SDS011;27689;48.390;10.856;2022-08-07T03:53:36;12.27;;;11.02;;
42000;SDS011;27689;48.390;10.856;2022-08-07T03:56:21;11.60;;;10.50;;
42000;SDS011;27689;48.390;10.856;2022-08-07T03:59:07;12.05;;;10.70;;
42000;SDS011;27689;48.390;10.856;2022-08-07T04:01:55;12.25;;;11.05;;
42000;SDS011;27689;48.390;10.856;2022-08-07T04:04:40;14.35;;;12.85;;
42000;SDS011;27689;48.390;10.856;2022-08-07T04:07:25;15.18;;;13.57;;
42000;SDS011;27689;48.390;10.856;2022-08-07T04:10:09;13.70;;;12.37;;
42000;SDS011;27689;48.390;10.856;2022-08-07T04:12:53;12.65;;;10.68;;
42000;SDS011;27689;48.390;10.856;2022-08-07T04:18:22;14.35;;;12.85;;
42000;SDS011;27689;48.390;10.856;2022-08-07T04:21:06;15.37;;;13.77;;
42000;SDS011;27689;48.390;10.856;2022-08-07T04:23:50;14.15;;;12.65;;
42000;SDS011;27689;48.390;10.856;2022-08-07T04:26:37;15.88;;;14.23;;
42000;SDS011;27689;48.390;10.856;2022-08-07T04:29:21;18.52;;;16.17;;
42000;SDS011;27689;48.390;10.856;2022-08-07T04:32:07;17.98;;;15.90;;
42000;SDS011;27689;48.390;10.856;2022-08-07T04:34:52;17.60;;;15.90;;
42000;SDS011;27689;48.390;10.856;2022-08-07T04:37:37;19.67;;;17.58;;
42000;SDS011;27689;48.390;10.856;2022-08-07T04:40:21;16.48;;;14.85;;
42000;SDS011;27689;48.390;10.856;2022-08-07T04:43:05;16.55;;;14.90;;
42000;SDS011;27689;48.390;10.856;2022-08-07T04:48:51;16.75;;;15.00;;
42000;SDS011;27689;48.390;10.856;2022-08-07T04:55:19;15.77;;;14.18;;
42000;SDS011;27689;48.390;10.856;2022-08-07T04:58:21;15.52;;;13.90;;
42000;SDS011;27689;48.390;10.856;2022-08-07T05:01:16;15.95;;;14.30;;
42000;SDS011;27689;48.390;10.856;2022-08-07T05:07:24;17.30;;;15.07;;
42000;SDS011;27689;48.390;10.856;2022-08-07T05:10:30;15.50;;;13.90;;
42000;SDS011;27689;48.390;10.856;2022-08-07T05:16:48;14.32;;;12.93;;
42000;SDS011;27689;48.390;10.856;2022-08-07T05:19:36;13.10;;;11.80;;
42000;SDS011;27689;48.390;10.856;2022-08-07T05:22:24;11.55;;;10.52;;
42000;SDS011;27689;48.390;10.856;2022-08-07T05:25:09;11.52;;;10.43;;
42000;SDS011;27689;48.390;10.856;2022-08-07T05:27:57;9.82;;;8.93;;
42000;SDS011;27689;48.390;10.856;2022-08-07T05:30:42;10.65;;;8.75;;
42000;SDS011;27689;48.390;10.856;2022-08-07T05:33:27;9.65;;;8.68;;
42000;SDS011;27689;48.390;10.856;2022-08-07T05:36:13;9.13;;;8.32;;
42000;SDS011;27689;48.390;10.856;2022-08-07T05:38:58;8.70;;;7.88;;
42000;SDS011;27689;48.390;10.856;2022-08-07T05:41:43;8.23;;;7.53;;
42000;SDS011;27689;48.390;10.856;2022-08-07T05:44:32;9.35;;;7.82;;
42000;SDS011;27689;48.390;10.856;2022-08-07T05:47:18;7.65;;;6.95;;
42000;SDS011;27689;48.390;10.856;2022-08-07T05:50:02;6.97;;;6.28;;
42000;SDS011;27689;48.390;10.856;2022-08-07T05:52:48;7.43;;;6.65;;
42000;SDS011;27689;48.390;10.856;2022-08-07T05:55:33;7.60;;;6.90;;
42000;SDS011;27689;48.390;10.856;2022-08-07T05:58:17;7.32;;;6.57;;
42000;SDS011;27689;48.390;10.856;2022-08-07T06:01:03;7.22;;;6.55;;
42000;SDS011;27689;48.390;10.856;2022-08-07T06:03:53;8.82;;;6.22;;
42000;SDS011;27689;48.390;10.856;2022-08-07T06:06:38;5.85;;;5.35;;
42000;SDS011;27689;48.390;10.856;2022-08-07T06:09:22;8.18;;;5.72;;
42000;SDS011;27689;48.390;10.856;2022-08-07T06:12:07;6.32;;;5.72;;
42000;SDS011;27689;48.390;10.856;2022-08-07T06:14:52;5.53;;;5.03;;
42000;SDS011;27689;48.390;10.856;2022-08-07T06:17:36;6.65;;;4.70;;
42000;SDS011;27689;48.390;10.856;2022-08-07T06:20:24;5.10;;;4.60;;
42000;SDS011;27689;48.390;10.856;2022-08-07T06:23:08;4.28;;;3.88;;
42000;SDS011;27689;48.390;10.856;2022-08-07T06:25:54;3.85;;;3.50;;
42000;SDS011;27689;48.390;10.856;2022-08-07T06:31:33;4.03;;;3.70;;
42000;SDS011;27689;48.390;10.856;2022-08-07T06:34:17;3.60;;;3.30;;
42000;SDS011;27689;48.390;10.856;2022-08-07T06:37:01;3.65;;;3.30;;
42000;SDS011;27689;48.390;10.856;2022-08-07T06:39:45;3.55;;;2.92;;
42000;SDS011;27689;48.390;10.856;2022-08-07T06:42:33;5.18;;;2.72;;
42000;SDS011;27689;48.390;10.856;2022-08-07T06:45:20;3.45;;;2.90;;
42000;SDS011;27689;48.390;10.856;2022-08-07T06:48:06;3.13;;;2.80;;
42000;SDS011;27689;48.390;10.856;2022-08-07T06:50:50;3.40;;;2.90;;
42000;SDS011;27689;48.390;10.856;2022-08-07T06:53:37;3.35;;;2.65;;
42000;SDS011;27689;48.390;10.856;2022-08-07T06:56:22;2.83;;;2.28;;
42000;SDS011;27689;48.390;10.856;2022-08-07T06:59:25;3.90;;;2.78;;
42000;SDS011;27689;48.390;10.856;2022-08-07T07:02:19;5.68;;;2.50;;
42000;SDS011;27689;48.390;10.856;2022-08-07T07:05:04;2.78;;;2.58;;
42000;SDS011;27689;48.390;10.856;2022-08-07T07:07:49;2.90;;;2.70;;
42000;SDS011;27689;48.390;10.856;2022-08-07T07:10:33;3.75;;;2.78;;
42000;SDS011;27689;48.390;10.856;2022-08-07T07:16:16;4.03;;;2.67;;
42000;SDS011;27689;48.390;10.856;2022-08-07T07:19:03;2.58;;;2.38;;
42000;SDS011;27689;48.390;10.856;2022-08-07T07:21:50;2.60;;;2.38;;
42000;SDS011;27689;48.390;10.856;2022-08-07T07:24:37;3.25;;;2.70;;
42000;SDS011;27689;48.390;10.856;2022-08-07T07:27:24;4.15;;;2.88;;
42000;SDS011;27689;48.390;10.856;2022-08-07T07:30:11;3.42;;;2.70;;
42000;SDS011;27689;48.390;10.856;2022-08-07T07:32:56;2.77;;;2.40;;
42000;SDS011;27689;48.390;10.856;2022-08-07T07:35:43;4.28;;;2.28;;
42000;SDS011;27689;48.390;10.856;2022-08-07T07:38:31;5.47;;;2.40;;
42000;SDS011;27689;48.390;10.856;2022-08-07T07:41:16;2.58;;;2.33;;
42000;SDS011;27689;48.390;10.856;2022-08-07T07:44:04;3.60;;;2.42;;
42000;SDS011;27689;48.390;10.856;2022-08-07T07:46:51;3.60;;;2.25;;
42000;SDS011;27689;48.390;10.856;2022-08-07T07:49:38;3.40;;;2.20;;
42000;SDS011;27689;48.390;10.856;2022-08-07T07:52:23;4.10;;;2.50;;
42000;SDS011;27689;48.390;10.856;2022-08-07T07:57:52;3.58;;;2.40;;
42000;SDS011;27689;48.390;10.856;2022-08-07T08:00:40;5.72;;;2.50;;
42000;SDS011;27689;48.390;10.856;2022-08-07T08:03:25;2.40;;;2.20;;
42000;SDS011;27689;48.390;10.856;2022-08-07T08:06:12;3.22;;;2.17;;
42000;SDS011;27689;48.390;10.856;2022-08-07T08:08:57;4.18;;;2.55;;
42000;SDS011;27689;48.390;10.856;2022-08-07T08:11:43;3.28;;;2.40;;
42000;SDS011;27689;48.390;10.856;2022-08-07T08:14:28;3.15;;;2.58;;
42000;SDS011;27689;48.390;10.856;2022-08-07T08:17:13;3.92;;;2.60;;
42000;SDS011;27689;48.390;10.856;2022-08-07T08:20:00;3.33;;;2.75;;
42000;SDS011;27689;48.390;10.856;2022-08-07T08:22:46;4.10;;;2.33;;
42000;SDS011;27689;48.390;10.856;2022-08-07T08:25:51;3.75;;;2.75;;
42000;SDS011;27689;48.390;10.856;2022-08-07T08:28:55;2.67;;;2.35;;
42000;SDS011;27689;48.390;10.856;2022-08-07T08:31:41;4.13;;;2.33;;
42000;SDS011;27689;48.390;10.856;2022-08-07T08:34:27;2.55;;;2.13;;
42000;SDS011;27689;48.390;10.856;2022-08-07T08:37:13;6.05;;;2.25;;
42000;SDS011;27689;48.390;10.856;2022-08-07T08:40:00;3.83;;;2.70;;
42000;SDS011;27689;48.390;10.856;2022-08-07T08:54:58;4.75;;;2.40;;
42000;SDS011;27689;48.390;10.856;2022-08-07T08:57:45;2.20;;;2.00;;
42000;SDS011;27689;48.390;10.856;2022-08-07T09:00:41;3.63;;;2.28;;
42000;SDS011;27689;48.390;10.856;2022-08-07T09:40:04;3.72;;;1.92;;
42000;SDS011;27689;48.390;10.856;2022-08-07T09:43:04;3.20;;;1.70;;
42000;SDS011;27689;48.390;10.856;2022-08-07T10:04:23;1.88;;;1.35;;
42000;SDS011;27689;48.390;10.856;2022-08-07T10:10:39;2.65;;;1.30;;
42000;SDS011;27689;48.390;10.856;2022-08-07T10:13:52;4.82;;;1.55;;
42000;SDS011;27689;48.390;10.856;2022-08-07T10:38:56;1.55;;;1.40;;
42000;SDS011;27689;48.390;10.856;2022-08-07T10:48:35;1.70;;;1.10;;
42000;SDS011;27689;48.390;10.856;2022-08-07T10:51:37;1.40;;;1.30;;
42000;SDS011;27689;48.390;10.856;2022-08-07T11:00:48;1.73;;;1.10;;
42000;SDS011;27689;48.390;10.856;2022-08-07T11:03:41;2.70;;;1.67;;
42000;SDS011;27689;48.390;10.856;2022-08-07T11:09:57;2.15;;;1.00;;
42000;SDS011;27689;48.390;10.856;2022-08-07T11:12:49;1.88;;;1.25;;
42000;SDS011;27689;48.390;10.856;2022-08-07T11:15:41;1.90;;;1.42;;
42000;SDS011;27689;48.390;10.856;2022-08-07T11:19:06;3.70;;;1.60;;
42000;SDS011;27689;48.390;10.856;2022-08-07T11:22:32;1.50;;;1.30;;
42000;SDS011;27689;48.390;10.856;2022-08-07T11:25:21;1.52;;;1.25;;
42000;SDS011;27689;48.390;10.856;2022-08-07T11:28:16;2.95;;;1.45;;
42000;SDS011;27689;48.390;10.856;2022-08-07T11:34:53;1.52;;;1.30;;
42000;SDS011;27689;48.390;10.856;2022-08-07T11:37:46;1.52;;;1.42;;
42000;SDS011;27689;48.390;10.856;2022-08-07T11:43:41;2.40;;;1.23;;
42000;SDS011;27689;48.390;10.856;2022-08-07T11:46:35;1.30;;;0.98;;
42000;SDS011;27689;48.390;10.856;2022-08-07T11:55:32;1.50;;;1.25;;
42000;SDS011;27689;48.390;10.856;2022-08-07T11:58:43;1.92;;;1.30;;
42000;SDS011;27689;48.390;10.856;2022-08-07T12:01:45;2.53;;;1.33;;
42000;SDS011;27689;48.390;10.856;2022-08-07T12:19:58;1.77;;;1.02;;
42000;SDS011;27689;48.390;10.856;2022-08-07T12:25:54;3.30;;;1.20;;
42000;SDS011;27689;48.390;10.856;2022-08-07T12:29:02;2.50;;;1.10;;
42000;SDS011;27689;48.390;10.856;2022-08-07T12:35:21;3.13;;;1.23;;
42000;SDS011;27689;48.390;10.856;2022-08-07T12:38:08;2.80;;;0.90;;
42000;SDS011;27689;48.390;10.856;2022-08-07T12:40:55;1.77;;;1.05;;
42000;SDS011;27689;48.390;10.856;2022-08-07T12:43:41;1.42;;;1.08;;
42000;SDS011;27689;48.390;10.856;2022-08-07T12:46:31;2.15;;;1.05;;
42000;SDS011;27689;48.390;10.856;2022-08-07T12:52:17;2.63;;;1.15;;
42000;SDS011;27689;48.390;10.856;2022-08-07T12:55:17;1.85;;;0.95;;
42000;SDS011;27689;48.390;10.856;2022-08-07T12:58:05;1.45;;;1.08;;
42000;SDS011;27689;48.390;10.856;2022-08-07T13:20:02;1.38;;;1.10;;
42000;SDS011;27689;48.390;10.856;2022-08-07T13:22:55;1.45;;;1.02;;
42000;SDS011;27689;48.390;10.856;2022-08-07T13:26:02;2.25;;;1.00;;
42000;SDS011;27689;48.390;10.856;2022-08-07T13:35:36;1.30;;;1.00;;
42000;SDS011;27689;48.390;10.856;2022-08-07T13:44:26;1.70;;;0.90;;
42000;SDS011;27689;48.390;10.856;2022-08-07T13:47:14;1.83;;;0.80;;
42000;SDS011;27689;48.390;10.856;2022-08-07T13:50:01;2.45;;;0.77;;
42000;SDS011;27689;48.390;10.856;2022-08-07T13:52:46;1.90;;;1.02;;
42000;SDS011;27689;48.390;10.856;2022-08-07T13:55:32;1.80;;;0.90;;
42000;SDS011;27689;48.390;10.856;2022-08-07T13:58:18;1.67;;;1.02;;
42000;SDS011;27689;48.390;10.856;2022-08-07T14:01:22;1.38;;;1.10;;
42000;SDS011;27689;48.390;10.856;2022-08-07T14:04:09;1.20;;;1.00;;
42000;SDS011;27689;48.390;10.856;2022-08-07T14:06:55;1.13;;;0.85;;
42000;SDS011;27689;48.390;10.856;2022-08-07T14:09:40;1.02;;;0.80;;
42000;SDS011;27689;48.390;10.856;2022-08-07T14:12:28;1.67;;;1.08;;
42000;SDS011;27689;48.390;10.856;2022-08-07T14:15:30;1.67;;;0.90;;
42000;SDS011;27689;48.390;10.856;2022-08-07T14:18:19;1.00;;;0.90;;
42000;SDS011;27689;48.390;10.856;2022-08-07T14:21:12;1.48;;;1.02;;
42000;SDS011;27689;48.390;10.856;2022-08-07T14:24:03;1.00;;;0.90;;
42000;SDS011;27689;48.390;10.856;2022-08-07T14:26:56;2.65;;;0.95;;
42000;SDS011;27689;48.390;10.856;2022-08-07T14:29:46;1.10;;;0.88;;
42000;SDS011;27689;48.390;10.856;2022-08-07T14:32:35;1.30;;;0.80;;
42000;SDS011;27689;48.390;10.856;2022-08-07T14:35:25;1.00;;;0.80;;
42000;SDS011;27689;48.390;10.856;2022-08-07T14:38:25;1.35;;;1.00;;
42000;SDS011;27689;48.390;10.856;2022-08-07T14:41:26;1.10;;;1.00;;
42000;SDS011;27689;48.390;10.856;2022-08-07T14:44:15;1.50;;;0.93;;
42000;SDS011;27689;48.390;10.856;2022-08-07T14:47:01;1.30;;;0.80;;
42000;SDS011;27689;48.390;10.856;2022-08-07T14:49:47;2.90;;;1.10;;
42000;SDS011;27689;48.390;10.856;2022-08-07T14:55:18;1.67;;;1.20;;
42000;SDS011;27689;48.390;10.856;2022-08-07T14:58:03;1.67;;;0.95;;
42000;SDS011;27689;48.390;10.856;2022-08-07T15:00:49;1.52;;;1.00;;
42000;SDS011;27689;48.390;10.856;2022-08-07T15:03:34;2.88;;;1.00;;
42000;SDS011;27689;48.390;10.856;2022-08-07T15:06:22;1.42;;;0.70;;
42000;SDS011;27689;48.390;10.856;2022-08-07T15:09:12;1.42;;;0.80;;
42000;SDS011;27689;48.390;10.856;2022-08-07T15:12:00;2.35;;;1.00;;
42000;SDS011;27689;48.390;10.856;2022-08-07T15:14:56;2.80;;;1.00;;
42000;SDS011;27689;48.390;10.856;2022-08-07T15:18:00;1.50;;;1.05;;
42000;SDS011;27689;48.390;10.856;2022-08-07T15:20:53;1.00;;;0.70;;
42000;SDS011;27689;48.390;10.856;2022-08-07T15:23:42;2.08;;;1.20;;
42000;SDS011;27689;48.390;10.856;2022-08-07T15:29:54;0.85;;;0.80;;
42000;SDS011;27689;48.390;10.856;2022-08-07T15:32:46;2.15;;;1.10;;
42000;SDS011;27689;48.390;10.856;2022-08-07T15:35:31;2.50;;;1.33;;
42000;SDS011;27689;48.390;10.856;2022-08-07T15:38:17;1.27;;;1.00;;
42000;SDS011;27689;48.390;10.856;2022-08-07T15:41:10;0.93;;;0.80;;
42000;SDS011;27689;48.390;10.856;2022-08-07T15:44:02;1.65;;;1.02;;
42000;SDS011;27689;48.390;10.856;2022-08-07T15:46:56;2.47;;;1.40;;
42000;SDS011;27689;48.390;10.856;2022-08-07T15:49:44;1.35;;;1.00;;
42000;SDS011;27689;48.390;10.856;2022-08-07T15:52:32;1.55;;;1.05;;
42000;SDS011;27689;48.390;10.856;2022-08-07T15:55:18;1.92;;;1.10;;
42000;SDS011;27689;48.390;10.856;2022-08-07T15:58:03;2.78;;;1.30;;
42000;SDS011;27689;48.390;10.856;2022-08-07T16:00:48;2.13;;;1.10;;
42000;SDS011;27689;48.390;10.856;2022-08-07T16:03:33;0.93;;;0.82;;
42000;SDS011;27689;48.390;10.856;2022-08-07T16:06:26;2.10;;;1.83;;
42000;SDS011;27689;48.390;10.856;2022-08-07T16:09:18;5.90;;;1.83;;
42000;SDS011;27689;48.390;10.856;2022-08-07T16:12:29;1.65;;;1.20;;
42000;SDS011;27689;48.390;10.856;2022-08-07T16:18:16;1.50;;;0.88;;
42000;SDS011;27689;48.390;10.856;2022-08-07T16:27:40;1.40;;;1.10;;
42000;SDS011;27689;48.390;10.856;2022-08-07T16:30:34;3.00;;;1.00;;
42000;SDS011;27689;48.390;10.856;2022-08-07T16:33:32;2.58;;;1.13;;
42000;SDS011;27689;48.390;10.856;2022-08-07T16:39:31;2.55;;;1.38;;
42000;SDS011;27689;48.390;10.856;2022-08-07T16:52:16;2.00;;;1.15;;
42000;SDS011;27689;48.390;10.856;2022-08-07T16:55:16;2.15;;;1.05;;
42000;SDS011;27689;48.390;10.856;2022-08-07T16:58:28;2.20;;;1.10;;
42000;SDS011;27689;48.390;10.856;2022-08-07T17:04:21;1.98;;;1.20;;
42000;SDS011;27689;48.390;10.856;2022-08-07T17:07:20;1.70;;;1.08;;
42000;SDS011;27689;48.390;10.856;2022-08-07T17:10:18;2.00;;;1.30;;
42000;SDS011;27689;48.390;10.856;2022-08-07T17:19:21;2.28;;;1.13;;
42000;SDS011;27689;48.390;10.856;2022-08-07T17:22:37;1.65;;;1.20;;
42000;SDS011;27689;48.390;10.856;2022-08-07T17:25:40;1.88;;;1.20;;
42000;SDS011;27689;48.390;10.856;2022-08-07T17:28:39;1.38;;;1.20;;
42000;SDS011;27689;48.390;10.856;2022-08-07T17:34:36;2.28;;;1.40;;
42000;SDS011;27689;48.390;10.856;2022-08-07T17:37:28;2.10;;;1.30;;
42000;SDS011;27689;48.390;10.856;2022-08-07T17:43:08;1.63;;;1.40;;
42000;SDS011;27689;48.390;10.856;2022-08-07T17:46:06;1.88;;;1.67;;
42000;SDS011;27689;48.390;10.856;2022-08-07T17:49:18;1.52;;;1.40;;
42000;SDS011;27689;48.390;10.856;2022-08-07T17:55:14;3.95;;;1.50;;
42000;SDS011;27689;48.390;10.856;2022-08-07T17:58:08;2.72;;;1.38;;
42000;SDS011;27689;48.390;10.856;2022-08-07T18:01:01;1.50;;;1.27;;
42000;SDS011;27689;48.390;10.856;2022-08-07T18:04:12;2.83;;;1.60;;
42000;SDS011;27689;48.390;10.856;2022-08-07T18:09:49;5.30;;;3.60;;
42000;SDS011;27689;48.390;10.856;2022-08-07T18:16:07;2.33;;;1.40;;
42000;SDS011;27689;48.390;10.856;2022-08-07T18:22:08;2.42;;;1.70;;
42000;SDS011;27689;48.390;10.856;2022-08-07T18:24:58;2.08;;;1.55;;
42000;SDS011;27689;48.390;10.856;2022-08-07T18:37:09;3.17;;;1.80;;
42000;SDS011;27689;48.390;10.856;2022-08-07T18:40:12;3.47;;;1.73;;
42000;SDS011;27689;48.390;10.856;2022-08-07T18:47:26;1.95;;;1.48;;
42000;SDS011;27689;48.390;10.856;2022-08-07T18:50:07;2.35;;;1.92;;
42000;SDS011;27689;48.390;10.856;2022-08-07T18:53:02;2.70;;;2.03;;
42000;SDS011;27689;48.390;10.856;2022-08-07T18:56:15;3.97;;;2.10;;
42000;SDS011;27689;48.390;10.856;2022-08-07T18:59:13;3.25;;;2.30;;
42000;SDS011;27689;48.390;10.856;2022-08-07T19:05:26;3.42;;;2.30;;
42000;SDS011;27689;48.390;10.856;2022-08-07T19:08:18;3.05;;;2.55;;
42000;SDS011;27689;48.390;10.856;2022-08-07T19:11:13;4.00;;;2.30;;
42000;SDS011;27689;48.390;10.856;2022-08-07T19:14:08;3.40;;;2.38;;
42000;SDS011;27689;48.390;10.856;2022-08-07T19:16:56;3.53;;;2.80;;
42000;SDS011;27689;48.390;10.856;2022-08-07T19:20:30;3.50;;;2.60;;
42000;SDS011;27689;48.390;10.856;2022-08-07T19:23:20;3.28;;;2.67;;
42000;SDS011;27689;48.390;10.856;2022-08-07T19:26:11;3.95;;;2.88;;
42000;SDS011;27689;48.390;10.856;2022-08-07T19:29:01;3.13;;;2.60;;
42000;SDS011;27689;48.390;10.856;2022-08-07T19:31:52;2.70;;;2.50;;
42000;SDS011;27689;48.390;10.856;2022-08-07T19:34:39;3.75;;;3.20;;
42000;SDS011;27689;48.390;10.856;2022-08-07T19:37:26;3.25;;;2.88;;
42000;SDS011;27689;48.390;10.856;2022-08-07T19:40:12;3.25;;;2.80;;
42000;SDS011;27689;48.390;10.856;2022-08-07T19:42:59;3.15;;;2.80;;
42000;SDS011;27689;48.390;10.856;2022-08-07T19:45:51;3.55;;;2.92;;
42000;SDS011;27689;48.390;10.856;2022-08-07T19:48:38;3.00;;;2.50;;
42000;SDS011;27689;48.390;10.856;2022-08-07T19:51:25;4.07;;;2.55;;
42000;SDS011;27689;48.390;10.856;2022-08-07T19:54:12;3.22;;;2.47;;
42000;SDS011;27689;48.390;10.856;2022-08-07T19:57:00;3.17;;;2.70;;
42000;SDS011;27689;48.390;10.856;2022-08-07T19:59:51;2.97;;;2.40;;
42000;SDS011;27689;48.390;10.856;2022-08-07T20:02:40;3.30;;;2.60;;
42000;SDS011;27689;48.390;10.856;2022-08-07T20:05:33;3.58;;;2.65;;
42000;SDS011;27689;48.390;10.856;2022-08-07T20:08:20;3.58;;;2.47;;
42000;SDS011;27689;48.390;10.856;2022-08-07T20:11:07;3.03;;;2.63;;
42000;SDS011;27689;48.390;10.856;2022-08-07T20:13:55;2.83;;;2.50;;
42000;SDS011;27689;48.390;10.856;2022-08-07T20:16:41;3.05;;;2.60;;
42000;SDS011;27689;48.390;10.856;2022-08-07T20:19:30;3.38;;;2.67;;
42000;SDS011;27689;48.390;10.856;2022-08-07T20:22:16;3.45;;;2.80;;
42000;SDS011;27689;48.390;10.856;2022-08-07T20:25:04;3.05;;;2.75;;
42000;SDS011;27689;48.390;10.856;2022-08-07T20:27:52;2.88;;;2.22;;
42000;SDS011;27689;48.390;10.856;2022-08-07T20:30:39;3.65;;;2.83;;
42000;SDS011;27689;48.390;10.856;2022-08-07T20:33:27;5.18;;;2.78;;
42000;SDS011;27689;48.390;10.856;2022-08-07T20:36:14;3.20;;;2.75;;
42000;SDS011;27689;48.390;10.856;2022-08-07T20:39:01;3.05;;;2.70;;
42000;SDS011;27689;48.390;10.856;2022-08-07T20:44:32;3.15;;;2.80;;
42000;SDS011;27689;48.390;10.856;2022-08-07T20:47:19;3.00;;;2.70;;
42000;SDS011;27689;48.390;10.856;2022-08-07T20:50:08;3.22;;;2.92;;
42000;SDS011;27689;48.390;10.856;2022-08-07T20:55:38;3.40;;;3.10;;
42000;SDS011;27689;48.390;10.856;2022-08-07T20:58:27;3.90;;;3.28;;
42000;SDS011;27689;48.390;10.856;2022-08-07T21:01:15;3.53;;;3.20;;
42000;SDS011;27689;48.390;10.856;2022-08-07T21:04:01;3.33;;;3.03;;
42000;SDS011;27689;48.390;10.856;2022-08-07T21:06:46;3.50;;;3.08;;
42000;SDS011;27689;48.390;10.856;2022-08-07T21:09:33;3.75;;;3.35;;
42000;SDS011;27689;48.390;10.856;2022-08-07T21:12:20;4.38;;;3.22;;
42000;SDS011;27689;48.390;10.856;2022-08-07T21:15:07;4.25;;;3.72;;
42000;SDS011;27689;48.390;10.856;2022-08-07T21:17:53;4.20;;;3.53;;
42000;SDS011;27689;48.390;10.856;2022-08-07T21:20:39;4.32;;;3.90;;